Odiham, United Kingdom
Current Conditions -  °F | °C
As of 10:50 PM on Friday 28 Nov 2014 (Local Time) from EGVO Reporting Station
Haze Haze  
Wind Chill: 50°   Ceiling: 11000
Heat Index: 50°   Visibility: 3mi
Dew Point: 48°   Wind: 6mph
Humidity: 94%   Direction: 60°ENE
Pressure: 29.68"   Gusts: NA
Location:  51.25°N, 0.94°W
Report Text: EGVO 282250Z 06005KT 5000 BR FEW006 SCT080 BKN110 10/09 Q1005 WHT
Loading
Personal Weather Stations






























Interactive Weather Map New forecast layout! Learn more

10-Day Weather Forecast

Advertisements
Track Severe Weather on mobile